createdAt,value
2019-04-07T00:01:54.068Z,77.85
2019-04-07T00:04:23.741Z,77.85
2019-04-07T00:06:53.334Z,78.75
2019-04-07T00:09:25.839Z,75.57
2019-04-07T00:11:55.309Z,75.72
2019-04-07T00:14:24.842Z,75.57
2019-04-07T00:16:54.221Z,74.80
2019-04-07T00:19:24.775Z,72.17
2019-04-07T00:21:54.207Z,76.40
2019-04-07T00:24:25.672Z,74.80
2019-04-07T00:26:56.187Z,75.17
2019-04-07T00:29:25.620Z,77.97
2019-04-07T00:31:54.966Z,77.30
2019-04-07T00:34:24.792Z,76.35
2019-04-07T00:36:54.215Z,76.28
2019-04-07T00:39:23.672Z,73.90
2019-04-07T00:41:53.216Z,73.83
2019-04-07T00:44:22.620Z,72.90
2019-04-07T00:46:52.592Z,77.30
2019-04-07T00:49:22.090Z,71.70
2019-04-07T00:51:54.593Z,74.47
2019-04-07T00:54:23.968Z,74.37
2019-04-07T00:56:53.453Z,74.70
2019-04-07T00:59:24.264Z,76.45
2019-04-07T01:01:53.764Z,77.92
2019-04-07T01:04:23.284Z,74.37
2019-04-07T01:06:52.720Z,75.33
2019-04-07T01:09:22.390Z,75.57
2019-04-07T01:11:52.401Z,74.92
2019-04-07T01:14:22.443Z,74.20
2019-04-07T01:16:51.884Z,74.77
2019-04-07T01:19:21.329Z,72.92
2019-04-07T01:21:52.192Z,72.45
2019-04-07T01:24:21.995Z,73.75
2019-04-07T01:26:52.539Z,75.87
2019-04-07T01:29:23.326Z,72.97
2019-04-07T01:31:53.309Z,71.87
2019-04-07T01:34:24.079Z,70.83
2019-04-07T01:36:53.572Z,70.65
2019-04-07T01:39:23.145Z,75.83
2019-04-07T01:42:11.615Z,72.80
2019-04-07T01:45:02.655Z,70.62
2019-04-07T01:47:44.303Z,72.42
2019-04-07T01:50:37.297Z,73.33
2019-04-07T01:53:25.414Z,70.08
2019-04-07T01:56:18.374Z,72.27
2019-04-07T01:59:12.505Z,71.65
2019-04-07T02:02:20.194Z,74.65
2019-04-07T02:05:23.635Z,75.20
2019-04-07T02:08:16.653Z,72.70
2019-04-07T02:11:06.045Z,72.00
2019-04-07T02:13:54.746Z,75.62
2019-04-07T02:16:59.248Z,71.37
2019-04-07T02:19:41.706Z,73.00
2019-04-07T02:25:27.278Z,73.37
2019-04-07T02:28:17.660Z,75.90
2019-04-07T02:31:08.122Z,71.30
2019-04-07T02:33:42.541Z,71.50
2019-04-07T02:36:33.764Z,70.57
2019-04-07T02:39:27.087Z,71.92
2019-04-07T02:42:11.198Z,71.77
2019-04-07T02:45:02.257Z,74.92
2019-04-07T02:47:50.042Z,70.80
2019-04-07T02:50:24.374Z,74.27
2019-04-07T02:53:19.467Z,76.37
2019-04-07T02:55:58.356Z,77.20
2019-04-07T02:58:52.755Z,73.52
2019-04-07T03:01:41.448Z,74.25
2019-04-07T03:04:31.262Z,74.77
2019-04-07T03:07:13.975Z,77.53
2019-04-07T03:09:56.798Z,78.37
2019-04-07T03:12:54.726Z,78.20
2019-04-07T03:15:52.748Z,77.13
2019-04-07T03:18:35.761Z,77.32
2019-04-07T03:21:21.411Z,79.27
2019-04-07T03:23:59.703Z,79.10
2019-04-07T03:26:47.697Z,76.97
2019-04-07T03:29:29.770Z,76.47
2019-04-07T03:32:08.473Z,80.00
2019-04-07T03:35:00.075Z,76.85
2019-04-07T03:37:53.078Z,77.42
2019-04-07T03:40:44.671Z,76.07
2019-04-07T03:43:34.625Z,78.15
2019-04-07T03:46:18.388Z,78.10
2019-04-07T03:49:13.450Z,78.83
2019-04-07T03:52:05.696Z,80.90
2019-04-07T03:54:54.829Z,80.67
2019-04-07T03:57:35.309Z,80.10
2019-04-07T04:00:36.925Z,77.15
2019-04-07T04:03:19.322Z,82.80
2019-04-07T04:08:48.939Z,79.95
2019-04-07T04:11:43.719Z,79.37
2019-04-07T04:14:29.866Z,81.40
2019-04-07T04:16:59.287Z,84.85
2019-04-07T04:19:28.840Z,82.75
2019-04-07T04:21:58.857Z,81.17
2019-04-07T04:24:28.578Z,85.00
2019-04-07T04:26:59.150Z,86.65
2019-04-07T04:29:29.796Z,83.47
2019-04-07T04:31:59.734Z,82.12
2019-04-07T04:34:29.250Z,84.75
2019-04-07T04:36:59.830Z,83.85
2019-04-07T04:39:29.600Z,80.90
2019-04-07T04:41:59.935Z,85.70
2019-04-07T04:44:29.575Z,85.53
2019-04-07T04:47:02.526Z,84.50
2019-04-07T04:49:33.610Z,83.92
2019-04-07T04:52:05.152Z,85.60
2019-04-07T04:54:35.347Z,85.40
2019-04-07T04:57:07.873Z,86.55
2019-04-07T04:59:36.640Z,86.63
2019-04-07T05:02:07.963Z,90.95
2019-04-07T05:04:39.814Z,92.80
2019-04-07T05:07:10.185Z,89.75
2019-04-07T05:09:46.222Z,93.00
2019-04-07T05:12:11.636Z,68.12
2019-04-07T05:14:42.862Z,94.32
2019-04-07T05:17:15.280Z,96.75
2019-04-07T05:19:45.355Z,90.12
2019-04-07T05:22:15.272Z,95.20
2019-04-07T05:24:45.488Z,88.50
2019-04-07T05:27:14.939Z,97.20
2019-04-07T05:29:44.653Z,91.47
2019-04-07T05:32:14.564Z,89.70
2019-04-07T05:34:43.919Z,92.55
2019-04-07T05:37:14.093Z,92.62
2019-04-07T05:39:43.744Z,97.57
2019-04-07T05:42:13.482Z,89.37
2019-04-07T05:44:43.201Z,92.40
2019-04-07T05:47:14.407Z,101.55
2019-04-07T05:49:44.572Z,98.65
2019-04-07T05:52:17.308Z,95.50
2019-04-07T05:54:49.595Z,90.40
2019-04-07T05:57:18.608Z,94.92
2019-04-07T05:59:48.722Z,94.17
2019-04-07T06:02:18.870Z,91.50
2019-04-07T06:04:49.184Z,94.90
2019-04-07T06:07:19.126Z,94.83
2019-04-07T06:09:51.242Z,93.12
2019-04-07T06:12:20.355Z,85.80
2019-04-07T06:14:49.875Z,84.83
2019-04-07T06:17:19.465Z,89.20
2019-04-07T06:19:51.231Z,86.67
2019-04-07T06:22:21.019Z,83.77
2019-04-07T06:24:52.848Z,82.10
2019-04-07T06:27:22.819Z,84.83
2019-04-07T06:29:59.909Z,79.20
2019-04-07T06:32:28.278Z,83.35
2019-04-07T06:34:57.553Z,85.55
2019-04-07T06:37:29.381Z,74.92
2019-04-07T06:39:57.822Z,76.22
2019-04-07T06:42:31.550Z,74.90
2019-04-07T06:45:00.490Z,72.92
2019-04-07T06:47:33.584Z,76.60
2019-04-07T06:50:31.172Z,74.67
2019-04-07T06:53:25.876Z,78.50
2019-04-07T06:56:14.330Z,75.42
2019-04-07T06:58:59.246Z,71.90
2019-04-07T07:01:36.210Z,72.20
2019-04-07T07:04:24.346Z,73.72
2019-04-07T07:07:07.349Z,70.50
2019-04-07T07:10:00.124Z,67.95
2019-04-07T07:12:59.162Z,65.70
2019-04-07T07:15:49.888Z,69.67
2019-04-07T07:18:28.376Z,62.93
2019-04-07T07:21:05.128Z,69.90
2019-04-07T07:23:37.466Z,64.60
2019-04-07T07:26:08.121Z,68.60
2019-04-07T07:28:38.022Z,62.13
2019-04-07T07:31:07.812Z,57.93
2019-04-07T07:33:40.442Z,56.15
2019-04-07T07:36:08.185Z,56.05
2019-04-07T07:38:37.499Z,57.23
2019-04-07T07:41:06.785Z,53.30
2019-04-07T07:43:36.095Z,53.48
2019-04-07T07:46:05.628Z,50.28
2019-04-07T07:48:35.644Z,55.10
2019-04-07T07:51:07.138Z,51.28
2019-04-07T07:53:36.207Z,53.20
2019-04-07T07:56:10.591Z,52.17
2019-04-07T07:58:36.879Z,53.38
2019-04-07T08:01:06.368Z,55.17
2019-04-07T08:03:36.077Z,50.88
2019-04-07T08:06:08.223Z,48.78
2019-04-07T08:08:36.431Z,48.00
2019-04-07T08:11:05.857Z,48.83
2019-04-07T08:13:41.202Z,46.08
2019-04-07T08:16:06.423Z,46.77
2019-04-07T08:18:37.147Z,43.60
2019-04-07T08:21:07.260Z,41.93
2019-04-07T08:23:37.327Z,42.15
2019-04-07T08:26:09.436Z,42.70
2019-04-07T08:28:39.220Z,36.13
2019-04-07T08:31:08.572Z,35.83
2019-04-07T08:33:38.529Z,37.50
2019-04-07T08:36:11.168Z,33.90
2019-04-07T08:38:38.857Z,35.75
2019-04-07T08:41:10.569Z,33.00
2019-04-07T08:43:39.798Z,32.80
2019-04-07T08:46:09.928Z,33.67
2019-04-07T08:48:40.171Z,32.80
2019-04-07T08:51:10.101Z,34.30
2019-04-07T08:53:43.603Z,30.40
2019-04-07T08:56:10.892Z,30.17
2019-04-07T08:58:40.265Z,30.02
2019-04-07T09:01:09.782Z,28.67
2019-04-07T09:03:39.938Z,27.37
2019-04-07T09:06:09.708Z,25.10
2019-04-07T09:08:39.873Z,23.67
2019-04-07T09:11:15.770Z,22.25
2019-04-07T09:13:55.955Z,20.37
2019-04-07T09:16:39.321Z,21.00
2019-04-07T09:19:31.013Z,20.50
2019-04-07T09:22:25.299Z,20.17
2019-04-07T09:25:20.415Z,23.07
2019-04-07T09:28:03.164Z,19.10
2019-04-07T09:30:41.008Z,18.07
2019-04-07T09:33:29.787Z,19.87
2019-04-07T09:36:24.635Z,17.73
2019-04-07T09:39:16.614Z,18.60
2019-04-07T09:42:10.134Z,19.57
2019-04-07T09:44:46.776Z,17.70
2019-04-07T09:47:46.850Z,15.68
2019-04-07T09:50:33.218Z,17.30
2019-04-07T09:53:30.735Z,16.67
2019-04-07T09:56:21.825Z,17.52
2019-04-07T09:59:00.310Z,16.57
2019-04-07T10:02:06.303Z,16.15
2019-04-07T10:04:59.290Z,17.85
2019-04-07T10:07:40.255Z,17.37
2019-04-07T10:10:35.017Z,17.23
2019-04-07T10:13:26.496Z,17.12
2019-04-07T10:16:14.901Z,16.45
2019-04-07T10:19:13.000Z,17.10
2019-04-07T10:22:13.943Z,15.93
2019-04-07T10:25:02.471Z,16.45
2019-04-07T10:27:54.377Z,17.75
2019-04-07T10:30:34.942Z,16.63
2019-04-07T10:33:26.285Z,17.25
2019-04-07T10:36:13.721Z,17.10
2019-04-07T10:39:02.170Z,21.62
2019-04-07T10:41:42.806Z,14.73
2019-04-07T10:44:36.534Z,14.43
2019-04-07T10:47:25.605Z,15.25
2019-04-07T10:50:14.350Z,16.00
2019-04-07T10:53:02.685Z,13.95
2019-04-07T10:55:58.086Z,14.00
2019-04-07T10:58:41.412Z,14.70
2019-04-07T11:01:29.635Z,14.93
2019-04-07T11:04:24.016Z,15.98
2019-04-07T11:07:19.055Z,14.50
2019-04-07T11:10:05.140Z,14.10
2019-04-07T11:12:47.976Z,15.90
2019-04-07T11:18:33.747Z,14.58
2019-04-07T11:21:21.495Z,15.60
2019-04-07T11:24:01.617Z,16.40
2019-04-07T11:26:49.889Z,13.88
2019-04-07T11:29:29.564Z,15.50
2019-04-07T11:32:17.716Z,15.35
2019-04-07T11:34:55.595Z,15.90
2019-04-07T11:37:53.937Z,14.93
2019-04-07T11:40:45.244Z,15.18
2019-04-07T11:43:30.588Z,17.00
2019-04-07T11:46:24.267Z,15.23
2019-04-07T11:49:19.519Z,14.78
2019-04-07T11:52:00.017Z,14.53
2019-04-07T11:54:38.164Z,17.17
2019-04-07T11:57:13.671Z,14.35
2019-04-07T12:00:00.016Z,15.68
2019-04-07T12:02:55.396Z,15.10
2019-04-07T12:05:46.840Z,15.43
2019-04-07T12:08:38.684Z,15.03
2019-04-07T12:11:27.752Z,14.87
2019-04-07T12:14:09.121Z,15.13
2019-04-07T12:16:59.359Z,17.17
2019-04-07T12:19:54.907Z,16.15
2019-04-07T12:22:49.934Z,15.58
2019-04-07T12:25:37.329Z,17.60
2019-04-07T12:28:47.564Z,15.58
2019-04-07T12:31:29.356Z,17.80
2019-04-07T12:34:15.390Z,17.12
2019-04-07T12:37:22.012Z,16.25
2019-04-07T12:40:13.144Z,16.15
2019-04-07T12:43:19.481Z,19.00
2019-04-07T12:45:54.878Z,17.30
2019-04-07T12:48:32.409Z,16.20
2019-04-07T12:51:27.589Z,16.10
2019-04-07T12:54:19.006Z,16.65
2019-04-07T12:57:07.305Z,15.45
2019-04-07T12:59:50.157Z,17.50
2019-04-07T13:02:39.153Z,15.53
2019-04-07T13:05:21.360Z,18.87
2019-04-07T13:08:09.171Z,17.95
2019-04-07T13:11:04.840Z,16.85
2019-04-07T13:16:44.619Z,16.40
2019-04-07T13:19:35.571Z,16.50
2019-04-07T13:22:27.236Z,17.50
2019-04-07T13:25:13.091Z,17.55
2019-04-07T13:27:55.820Z,17.10
2019-04-07T13:30:32.615Z,15.93
2019-04-07T13:33:33.187Z,16.50
2019-04-07T13:36:21.475Z,16.97
2019-04-07T13:39:12.811Z,17.50
2019-04-07T13:42:02.115Z,18.35
2019-04-07T13:44:49.737Z,17.25
2019-04-07T13:47:31.989Z,17.98
2019-04-07T13:50:17.934Z,18.42
2019-04-07T13:53:12.470Z,17.10
2019-04-07T13:55:59.580Z,18.48
2019-04-07T13:58:39.004Z,17.12
2019-04-07T14:01:32.275Z,18.15
2019-04-07T14:04:23.101Z,17.35
2019-04-07T14:06:58.818Z,18.82
2019-04-07T14:09:50.695Z,19.12
2019-04-07T14:12:51.271Z,18.70
2019-04-07T14:15:38.408Z,18.87
2019-04-07T14:18:17.888Z,18.60
2019-04-07T14:21:12.240Z,17.77
2019-04-07T14:24:03.648Z,17.67
2019-04-07T14:27:04.366Z,19.67
2019-04-07T14:30:02.726Z,18.48
2019-04-07T14:32:50.738Z,17.90
2019-04-07T14:35:37.015Z,17.27
2019-04-07T14:38:33.236Z,17.45
2019-04-07T14:41:21.507Z,18.83
2019-04-07T14:43:56.530Z,17.92
2019-04-07T14:46:50.118Z,20.30
2019-04-07T14:49:37.915Z,19.52
2019-04-07T14:52:36.156Z,18.25
2019-04-07T14:55:54.504Z,17.62
2019-04-07T14:59:08.089Z,18.55
2019-04-07T15:01:54.013Z,20.32
2019-04-07T15:04:59.504Z,18.32
2019-04-07T15:07:52.805Z,19.42
2019-04-07T15:10:27.607Z,20.50
2019-04-07T15:13:01.891Z,20.10
2019-04-07T15:15:41.676Z,19.92
2019-04-07T15:18:11.639Z,19.75
2019-04-07T15:20:43.759Z,19.10
2019-04-07T15:23:25.499Z,21.25
2019-04-07T15:25:58.952Z,18.53
2019-04-07T15:28:49.291Z,18.25
2019-04-07T15:31:21.718Z,18.37
2019-04-07T15:34:08.661Z,19.10
2019-04-07T15:36:47.983Z,18.25
2019-04-07T15:39:44.749Z,20.27
2019-04-07T15:42:52.608Z,19.32
2019-04-07T15:45:33.362Z,16.73
2019-04-07T15:48:27.125Z,20.17
2019-04-07T15:51:13.287Z,17.17
2019-04-07T15:54:06.414Z,17.73
2019-04-07T15:56:35.775Z,16.95
2019-04-07T15:59:46.200Z,19.62
2019-04-07T16:02:16.041Z,16.90
2019-04-07T16:04:49.219Z,17.20
2019-04-07T16:07:23.070Z,18.45
2019-04-07T16:10:14.520Z,17.23
2019-04-07T16:13:08.896Z,19.45
2019-04-07T16:21:49.458Z,17.57
2019-04-07T16:24:53.879Z,18.12
2019-04-07T16:27:40.632Z,19.02
2019-04-07T16:35:02.538Z,19.10
2019-04-07T16:37:23.622Z,17.60
2019-04-07T16:40:18.509Z,18.90
2019-04-07T16:43:58.705Z,19.73
2019-04-07T16:46:28.252Z,18.92
2019-04-07T16:49:01.791Z,18.62
2019-04-07T16:51:33.646Z,17.87
2019-04-07T16:54:02.723Z,17.77
2019-04-07T16:56:32.331Z,17.90
2019-04-07T16:59:02.580Z,18.12
2019-04-07T17:01:31.971Z,18.82
2019-04-07T17:04:01.301Z,17.50
2019-04-07T17:06:34.716Z,19.12
2019-04-07T17:09:02.456Z,17.75
2019-04-07T17:11:32.313Z,20.08
2019-04-07T17:14:02.939Z,17.23
2019-04-07T17:16:33.439Z,19.77
2019-04-07T17:19:02.823Z,17.55
2019-04-07T17:21:32.893Z,18.02
2019-04-07T17:24:03.996Z,18.12
2019-04-07T17:26:37.428Z,20.97
2019-04-07T17:29:05.053Z,17.12
2019-04-07T17:31:34.801Z,18.95
2019-04-07T17:34:07.344Z,17.87
2019-04-07T17:36:48.426Z,17.73
2019-04-07T17:40:15.710Z,17.77
2019-04-07T17:42:45.910Z,17.45
2019-04-07T17:45:48.022Z,19.23
2019-04-07T17:48:37.348Z,18.70
2019-04-07T17:51:42.217Z,17.50
2019-04-07T17:54:29.189Z,18.30
2019-04-07T17:57:07.110Z,18.32
2019-04-07T17:59:55.291Z,19.67
2019-04-07T18:02:44.149Z,18.57
2019-04-07T18:05:42.005Z,19.42
2019-04-07T18:08:46.010Z,19.98
2019-04-07T18:11:35.022Z,18.55
2019-04-07T18:14:24.570Z,18.60
2019-04-07T18:17:08.663Z,19.42
2019-04-07T18:19:45.431Z,20.85
2019-04-07T18:22:42.466Z,20.70
2019-04-07T18:25:25.070Z,23.42
2019-04-07T18:28:03.276Z,23.38
2019-04-07T18:30:44.040Z,22.20
2019-04-07T18:33:21.307Z,21.00
2019-04-07T18:36:12.073Z,22.40
2019-04-07T18:39:04.479Z,26.00
2019-04-07T18:41:42.484Z,21.50
2019-04-07T18:44:35.236Z,26.42
2019-04-07T18:47:24.143Z,24.47
2019-04-07T18:50:20.226Z,24.23
2019-04-07T18:53:09.203Z,24.37
2019-04-07T18:55:57.954Z,24.90
2019-04-07T18:59:04.670Z,24.50
2019-04-07T19:02:01.793Z,27.67
2019-04-07T19:05:05.291Z,24.77
2019-04-07T19:07:52.866Z,26.82
2019-04-07T19:10:35.542Z,26.37
2019-04-07T19:13:30.064Z,26.87
2019-04-07T19:16:13.561Z,29.92
2019-04-07T19:19:05.164Z,29.20
2019-04-07T19:21:53.723Z,26.02
2019-04-07T19:25:05.181Z,26.35
2019-04-07T19:27:50.463Z,28.45
2019-04-07T19:30:38.909Z,28.30
2019-04-07T19:33:30.083Z,27.45
2019-04-07T19:36:24.399Z,27.67
2019-04-07T19:39:21.393Z,28.10
2019-04-07T19:42:14.840Z,29.07
2019-04-07T19:45:07.422Z,29.12
2019-04-07T19:48:05.401Z,28.70
2019-04-07T19:50:59.039Z,26.57
2019-04-07T19:53:43.173Z,29.25
2019-04-07T19:56:25.836Z,28.50
2019-04-07T19:59:12.841Z,28.95
2019-04-07T20:02:10.052Z,31.93
2019-04-07T20:05:01.553Z,29.18
2019-04-07T20:07:48.519Z,29.13
2019-04-07T20:10:35.860Z,27.77
2019-04-07T20:13:38.382Z,28.65
2019-04-07T20:16:16.349Z,26.97
2019-04-07T20:18:59.573Z,27.30
2019-04-07T20:21:54.783Z,29.87
2019-04-07T20:24:40.641Z,28.50
2019-04-07T20:27:29.755Z,29.45
2019-04-07T20:30:31.735Z,29.40
2019-04-07T20:33:21.014Z,32.00
2019-04-07T20:36:20.499Z,30.10
2019-04-07T20:39:00.534Z,29.57
2019-04-07T20:41:36.369Z,28.67
2019-04-07T20:44:30.830Z,29.80
2019-04-07T20:47:31.554Z,36.05
2019-04-07T20:50:23.767Z,32.85
2019-04-07T20:53:17.375Z,29.18
2019-04-07T20:55:54.963Z,29.35
2019-04-07T20:58:53.813Z,30.25
2019-04-07T21:01:25.603Z,28.25
2019-04-07T21:04:17.910Z,28.02
2019-04-07T21:07:16.437Z,30.48
2019-04-07T21:09:56.371Z,31.10
2019-04-07T21:12:47.182Z,31.73
2019-04-07T21:15:50.082Z,33.87
2019-04-07T21:18:31.750Z,31.70
2019-04-07T21:21:11.818Z,28.40
2019-04-07T21:23:46.204Z,30.15
2019-04-07T21:26:41.195Z,35.92
2019-04-07T21:29:20.369Z,34.63
2019-04-07T21:32:09.597Z,32.08
2019-04-07T21:34:53.607Z,33.10
2019-04-07T21:37:47.561Z,32.38
2019-04-07T21:40:28.590Z,29.20
2019-04-07T21:43:09.260Z,32.15
2019-04-07T21:46:09.977Z,33.23
2019-04-07T21:49:01.765Z,33.28
2019-04-07T21:51:46.601Z,32.77
2019-04-07T21:54:37.863Z,32.73
2019-04-07T21:57:37.998Z,30.62
2019-04-07T22:00:32.576Z,30.36
2019-04-07T22:03:21.241Z,30.50
2019-04-07T22:06:07.784Z,31.33
2019-04-07T22:08:47.840Z,28.65
2019-04-07T22:11:17.651Z,34.15
2019-04-07T22:13:47.142Z,33.20
2019-04-07T22:16:16.449Z,31.68
2019-04-07T22:18:45.721Z,32.75
2019-04-07T22:21:15.009Z,31.12
2019-04-07T22:23:44.381Z,30.85
2019-04-07T22:26:17.891Z,33.73
2019-04-07T22:28:44.983Z,34.83
2019-04-07T22:31:16.982Z,30.95
2019-04-07T22:33:46.627Z,32.10
2019-04-07T22:36:16.679Z,32.30
2019-04-07T22:38:46.085Z,32.15
2019-04-07T22:41:15.559Z,36.38
2019-04-07T22:43:47.834Z,34.75
2019-04-07T22:46:19.428Z,32.00
2019-04-07T22:48:46.780Z,28.95
2019-04-07T22:51:16.729Z,33.28
2019-04-07T22:53:46.093Z,33.67
2019-04-07T22:56:16.070Z,36.80
2019-04-07T22:58:45.407Z,38.40
2019-04-07T23:01:14.754Z,37.90
2019-04-07T23:03:43.995Z,34.40
2019-04-07T23:06:13.250Z,37.63
2019-04-07T23:08:43.255Z,33.53
2019-04-07T23:11:12.532Z,36.13
2019-04-07T23:13:42.028Z,36.25
2019-04-07T23:16:14.920Z,36.20
2019-04-07T23:18:42.440Z,35.00
2019-04-07T23:21:11.980Z,39.05
2019-04-07T23:23:41.978Z,37.28
2019-04-07T23:26:11.281Z,39.18
2019-04-07T23:28:40.728Z,36.95
2019-04-07T23:31:09.981Z,37.53
2019-04-07T23:33:39.352Z,36.45
2019-04-07T23:36:09.435Z,36.30
2019-04-07T23:38:39.096Z,36.35
2019-04-07T23:41:08.421Z,38.20
2019-04-07T23:43:37.699Z,38.23
2019-04-07T23:46:18.751Z,35.75
2019-04-07T23:48:38.144Z,41.18
2019-04-07T23:51:07.475Z,35.80
2019-04-07T23:54:08.699Z,37.03
2019-04-07T23:56:39.429Z,37.35
2019-04-07T23:59:08.991Z,41.30
